Time;durP1;ratioP1;P1;durP2;ratioP2;P2;SDS_P1;SDS_P2;PMS_P1;PMS_P2;Temp;Humidity;BMP_temperature;BMP_pressure;BME280_temperature;BME280_humidity;BME280_pressure;Samples;Min_cycle;Max_cycle;Signal;HPM_P1;HPM_P2
2023/09/01 06:14:48;;;;;;;6.20;4.30;;;;;;;14.24;100.00;99815.56;5694613;23;20030;-96
2023/09/01 06:27:18;;;;;;;5.72;4.05;;;;;;;14.42;100.00;99842.59;5376302;23;20048;-96
2023/09/01 08:02:38;;;;;;;10.68;5.28;;;;;;;18.18;100.00;99925.16;5868457;23;20033;-95
2023/09/01 08:07:42;;;;;;;5.68;4.72;;;;;;;19.53;100.00;99929.13;6088839;23;20010;-96
2023/09/01 08:10:33;;;;;;;10.18;6.13;;;;;;;20.77;100.00;99936.97;5047113;23;20050;-96
2023/09/01 08:13:12;;;;;;;;;;;;;;;;;;;;;
2023/09/01 08:15:32;;;;;;;6.53;4.65;;;;;;;21.44;93.23;99939.28;4964391;29;20039;-96
2023/09/01 08:17:58;;;;;;;11.45;4.50;;;;;;;20.51;97.76;99943.22;4972890;28;20016;-96
2023/09/01 08:20:25;;;;;;;7.00;4.05;;;;;;;20.52;95.02;99933.56;4973778;29;20023;-96
2023/09/01 08:22:50;;;;;;;8.27;4.43;;;;;;;20.30;93.62;99940.28;4970185;28;20118;-96
2023/09/01 08:25:21;;;;;;;5.03;4.50;;;;;;;20.33;95.96;99937.31;5039326;23;20679;-96
2023/09/01 08:27:47;;;;;;;5.07;3.97;;;;;;;19.91;99.45;99946.13;4974099;29;20039;-96
2023/09/01 08:30:13;;;;;;;7.50;4.47;;;;;;;20.39;99.53;99957.66;4974819;28;20075;-96
2023/09/01 08:32:40;;;;;;;7.82;4.90;;;;;;;20.39;100.00;99957.66;4957570;29;20100;-96
2023/09/01 08:53:13;;;;;;;9.88;4.38;;;;;;;19.86;98.07;99961.50;5827673;23;20055;-96
2023/09/01 08:55:38;;;;;;;7.35;4.82;;;;;;;20.75;94.46;99970.44;4977008;28;20015;-96
2023/09/01 08:58:04;;;;;;;8.23;4.30;;;;;;;21.48;89.22;99973.88;4979411;28;20042;-96
2023/09/01 09:00:30;;;;;;;6.60;3.85;;;;;;;22.97;81.12;99972.72;4979878;29;20031;-96
2023/09/01 09:02:55;;;;;;;7.32;3.63;;;;;;;23.34;73.86;99979.75;4978793;28;20035;-96
2023/09/01 09:05:22;;;;;;;6.38;3.78;;;;;;;23.80;71.77;99982.19;4994275;28;20015;-96
2023/09/01 09:07:59;;;;;;;8.98;3.72;;;;;;;23.05;71.28;99976.13;4975939;28;20121;-96
2023/09/01 09:10:46;;;;;;;7.10;2.85;;;;;;;22.38;68.80;99979.47;4968236;28;20027;-96
2023/09/01 09:13:28;;;;;;;7.03;3.30;;;;;;;23.54;67.95;99981.81;4968788;29;20047;-96
2023/09/01 09:16:15;;;;;;;6.60;2.97;;;;;;;23.45;64.95;99992.44;4982566;28;20094;-96
2023/09/01 09:18:42;;;;;;;7.07;3.10;;;;;;;23.79;64.30;99992.91;4959460;28;20082;-96
2023/09/01 09:21:37;;;;;;;5.00;2.42;;;;;;;23.80;62.40;100005.91;4957863;28;20102;-95
2023/09/01 09:24:03;;;;;;;3.95;2.47;;;;;;;24.08;59.69;100008.63;4957535;28;20039;-95
2023/09/01 09:26:30;;;;;;;6.40;2.88;;;;;;;23.71;66.92;100017.50;4958078;28;20038;-94
2023/09/01 09:29:03;;;;;;;5.88;3.10;;;;;;;22.73;69.90;99998.28;4957157;29;20030;-95
2023/09/01 09:31:30;;;;;;;6.97;3.17;;;;;;;22.40;69.71;100005.59;4956353;29;20022;-94
2023/09/01 09:33:55;;;;;;;6.00;2.78;;;;;;;21.93;72.51;100011.78;4964064;28;20031;-96
2023/09/01 09:36:36;;;;;;;6.20;3.20;;;;;;;21.84;71.80;100007.56;4969557;28;20036;-96
2023/09/01 09:39:03;;;;;;;3.90;2.22;;;;;;;21.82;73.00;100004.28;4984471;28;20083;-96
2023/09/01 09:41:45;;;;;;;3.55;2.08;;;;;;;21.88;73.14;100014.13;4973520;28;20031;-96
2023/09/01 09:44:10;;;;;;;4.90;2.38;;;;;;;21.96;68.39;100011.44;4974332;28;20031;-96
2023/09/01 09:46:44;;;;;;;6.10;2.25;;;;;;;22.09;68.68;100011.66;4973180;28;20031;-96
2023/09/01 09:49:11;;;;;;;4.15;2.00;;;;;;;22.41;68.14;100009.84;4971757;28;20023;-96
2023/09/01 09:51:39;;;;;;;5.15;2.67;;;;;;;22.91;67.27;100007.66;4972354;28;20038;-96
2023/09/01 09:54:09;;;;;;;3.85;2.25;;;;;;;23.39;66.50;100008.19;4968777;28;20533;-96
2023/09/01 09:56:37;;;;;;;6.20;2.45;;;;;;;23.82;61.38;100008.31;4968020;28;20027;-96
2023/09/01 09:59:04;;;;;;;4.28;2.20;;;;;;;23.53;59.96;100014.44;4965077;28;20055;-96
2023/09/01 10:01:36;;;;;;;5.82;2.20;;;;;;;23.55;61.35;100007.16;4967406;28;20152;-96
2023/09/01 10:04:05;;;;;;;4.13;2.00;;;;;;;23.51;61.13;100012.00;4963845;28;20031;-96
2023/09/01 10:06:33;;;;;;;2.92;1.67;;;;;;;23.24;63.59;100010.81;4963961;28;20028;-96
2023/09/01 10:09:01;;;;;;;2.58;1.70;;;;;;;23.28;60.80;100006.81;4960939;28;20381;-96
2023/09/01 10:11:28;;;;;;;5.00;2.35;;;;;;;23.32;60.68;100009.91;4962074;28;20057;-96
2023/09/01 10:13:55;;;;;;;3.45;2.13;;;;;;;22.95;64.17;100012.38;4979432;28;20031;-96
2023/09/01 10:16:22;;;;;;;3.25;1.83;;;;;;;22.94;64.84;100008.09;4966952;28;20026;-96
2023/09/01 10:18:48;;;;;;;5.53;2.03;;;;;;;22.49;66.30;100014.25;4964690;29;20532;-95
2023/09/01 10:21:16;;;;;;;3.40;1.90;;;;;;;22.42;66.83;100017.56;4959260;29;20031;-96
2023/09/01 10:23:43;;;;;;;2.97;1.67;;;;;;;22.29;66.70;100016.50;4970636;29;20023;-96
2023/09/01 10:26:18;;;;;;;2.80;1.48;;;;;;;22.16;64.49;100012.63;4986368;28;20078;-96
2023/09/01 10:29:04;;;;;;;2.28;1.60;;;;;;;21.92;68.40;100026.75;4970045;29;20019;-96
2023/09/01 10:31:33;;;;;;;3.03;1.40;;;;;;;21.71;69.59;100029.13;4968686;29;20051;-96
2023/09/01 10:34:15;;;;;;;5.38;1.52;;;;;;;21.70;73.16;100041.44;4972210;29;20045;-96
2023/09/01 10:36:45;;;;;;;2.90;1.40;;;;;;;21.70;70.19;100036.19;4971165;29;20038;-96
2023/09/01 10:39:21;;;;;;;3.65;1.63;;;;;;;21.87;70.16;100033.47;4989158;28;20024;-96
2023/09/01 10:41:58;;;;;;;2.88;1.80;;;;;;;21.63;71.64;100040.50;4988563;28;20114;-96
2023/09/01 10:44:50;;;;;;;4.45;1.98;;;;;;;21.78;70.51;100048.47;4986370;28;20031;-96
2023/09/01 10:47:31;;;;;;;4.57;3.10;;;;;;;21.65;72.58;100056.88;4969853;29;20054;-96
2023/09/01 10:50:01;;;;;;;2.33;1.13;;;;;;;21.74;72.30;100045.34;4970365;29;20051;-96
2023/09/01 10:52:28;;;;;;;4.25;1.83;;;;;;;21.53;71.51;100059.06;4968316;28;20031;-96
2023/09/01 10:54:59;;;;;;;4.72;2.08;;;;;;;21.62;70.78;100053.78;4969134;28;20038;-96
2023/09/01 10:57:48;;;;;;;3.35;1.70;;;;;;;21.66;68.55;100052.47;4969358;29;20034;-96
2023/09/01 11:00:30;;;;;;;4.05;1.60;;;;;;;21.66;71.14;100042.78;4969723;28;20122;-96
2023/09/01 11:03:29;;;;;;;4.05;1.88;;;;;;;21.92;73.48;100058.28;4986625;28;20034;-96
2023/09/01 11:05:56;;;;;;;3.85;1.70;;;;;;;21.89;68.50;100057.78;4966567;29;20114;-94
2023/09/01 11:08:24;;;;;;;3.72;1.48;;;;;;;22.05;66.32;100060.34;4983965;28;20031;-96
2023/09/01 11:10:51;;;;;;;2.08;1.30;;;;;;;22.17;66.47;100064.22;4968773;29;20488;-96
2023/09/01 11:13:18;;;;;;;4.20;1.17;;;;;;;22.15;67.16;100063.56;4981951;28;20043;-96
2023/09/01 11:15:49;;;;;;;5.93;1.45;;;;;;;21.93;69.97;100065.16;4983071;28;20114;-96
2023/09/01 11:18:22;;;;;;;5.80;3.95;;;;;;;21.82;65.68;100062.88;4980794;28;20027;-96
2023/09/01 11:20:50;;;;;;;2.92;1.52;;;;;;;22.04;66.19;100063.13;4981960;28;20058;-96
2023/09/01 11:23:20;;;;;;;4.03;2.40;;;;;;;22.15;69.11;100073.28;4955857;29;20019;-95
2023/09/01 11:25:48;;;;;;;5.25;3.10;;;;;;;22.19;67.14;100074.53;4970698;28;20090;-95
2023/09/01 11:28:14;;;;;;;5.75;3.10;;;;;;;22.13;65.34;100075.25;4958429;29;20055;-96
2023/09/01 11:30:53;;;;;;;5.68;3.10;;;;;;;22.12;65.43;100069.19;4965892;29;20042;-96
2023/09/01 11:33:23;;;;;;;3.45;2.33;;;;;;;22.25;66.78;100073.09;4965941;28;20031;-96
2023/09/01 11:36:03;;;;;;;3.75;2.70;;;;;;;22.32;66.29;100068.78;4966745;29;20481;-96
2023/09/01 11:38:28;;;;;;;5.18;2.95;;;;;;;22.35;64.54;100073.69;4958816;29;20023;-95
2023/09/01 11:40:55;;;;;;;5.50;2.80;;;;;;;22.44;65.93;100072.63;4962532;29;20030;-96
2023/09/01 11:43:21;;;;;;;4.43;2.63;;;;;;;22.38;65.29;100078.56;4969203;28;20019;-96
2023/09/01 11:45:50;;;;;;;4.20;2.60;;;;;;;22.28;66.31;100067.47;4984718;28;20027;-96
2023/09/01 11:48:27;;;;;;;3.25;2.40;;;;;;;22.43;61.61;100073.63;4981031;28;20027;-96
2023/09/01 11:50:54;;;;;;;5.90;2.70;;;;;;;22.64;62.23;100073.81;4983878;28;20015;-96
2023/09/01 11:53:29;;;;;;;3.88;2.58;;;;;;;22.49;62.80;100070.31;4983216;28;20043;-96
2023/09/01 11:56:01;;;;;;;4.20;2.35;;;;;;;22.77;62.88;100081.09;4969512;29;20110;-96
2023/09/01 11:58:33;;;;;;;4.13;2.20;;;;;;;22.82;63.67;100085.84;4985431;28;20031;-96
2023/09/01 12:01:09;;;;;;;5.30;2.35;;;;;;;22.88;61.24;100079.88;4968750;29;20058;-96
2023/09/01 12:03:34;;;;;;;6.60;2.10;;;;;;;22.58;61.79;100074.53;4968981;29;20027;-96
2023/09/01 12:06:00;;;;;;;6.72;2.47;;;;;;;22.56;62.10;100079.13;4967565;29;20046;-96
2023/09/01 12:08:26;;;;;;;3.15;2.40;;;;;;;22.66;64.51;100076.28;4969585;29;20023;-96
2023/09/01 12:11:05;;;;;;;4.13;2.17;;;;;;;22.79;63.95;100078.31;4968843;29;20034;-96
2023/09/01 12:13:31;;;;;;;5.05;2.80;;;;;;;22.60;64.34;100087.47;4970381;29;20046;-96
2023/09/01 12:16:01;;;;;;;5.75;3.00;;;;;;;22.26;63.48;100077.34;4969456;29;20030;-96
2023/09/01 12:18:30;;;;;;;6.35;2.72;;;;;;;22.71;63.66;100088.91;4969431;28;20035;-96
2023/09/01 12:20:56;;;;;;;3.90;1.90;;;;;;;22.46;63.23;100089.06;4982498;28;20034;-96
2023/09/01 12:23:29;;;;;;;5.30;2.53;;;;;;;22.52;63.25;100090.16;4966252;29;20094;-96
2023/09/01 12:25:57;;;;;;;3.85;2.28;;;;;;;22.55;64.36;100085.38;4982732;28;20051;-96
2023/09/01 12:28:25;;;;;;;5.55;2.50;;;;;;;22.68;64.47;100091.84;4969208;29;20095;-96
2023/09/01 12:30:51;;;;;;;5.20;2.40;;;;;;;22.59;61.14;100091.94;4983971;28;20019;-96
2023/09/01 12:33:17;;;;;;;3.13;2.28;;;;;;;22.71;62.79;100088.91;4986627;28;20023;-96
2023/09/01 12:35:43;;;;;;;3.05;1.95;;;;;;;22.82;62.31;100097.19;4971847;29;20051;-96
2023/09/01 12:38:08;;;;;;;6.18;2.55;;;;;;;22.91;64.40;100095.31;4970407;29;20568;-96
2023/09/01 12:40:34;;;;;;;2.72;1.92;;;;;;;22.92;63.09;100096.94;4971185;29;20023;-96
2023/09/01 12:43:02;;;;;;;4.25;2.75;;;;;;;22.90;60.61;100103.38;4988428;28;20496;-96
2023/09/01 12:45:29;;;;;;;3.08;1.85;;;;;;;22.60;61.24;100092.75;4972159;29;20026;-96
2023/09/01 12:47:55;;;;;;;4.90;2.20;;;;;;;22.65;60.32;100096.50;4988282;28;20130;-96
2023/09/01 12:50:21;;;;;;;3.50;2.13;;;;;;;22.73;61.99;100097.44;4972912;29;20042;-96
2023/09/01 12:52:47;;;;;;;4.15;2.00;;;;;;;22.33;61.48;100091.44;4988396;28;20546;-96
2023/09/01 12:55:13;;;;;;;2.83;1.85;;;;;;;22.57;62.10;100095.72;4989106;28;20023;-96
2023/09/01 12:57:39;;;;;;;4.35;2.50;;;;;;;22.38;62.26;100094.34;4988449;28;20028;-96
2023/09/01 13:00:06;;;;;;;6.28;2.42;;;;;;;22.30;61.19;100091.78;4972764;29;20086;-96
2023/09/01 13:02:31;;;;;;;3.28;2.30;;;;;;;22.50;61.18;100089.53;4987783;28;20043;-96
2023/09/01 13:04:57;;;;;;;8.60;2.78;;;;;;;22.70;62.41;100095.94;4970759;29;20067;-96
2023/09/01 13:07:23;;;;;;;4.03;2.72;;;;;;;22.74;62.44;100096.44;4987408;28;20024;-96
2023/09/01 13:09:49;;;;;;;4.25;2.85;;;;;;;22.81;62.01;100113.16;4986229;28;20047;-96
2023/09/01 13:12:16;;;;;;;4.57;2.63;;;;;;;22.80;61.41;100106.25;4985817;28;20508;-96
2023/09/01 13:14:42;;;;;;;4.38;2.83;;;;;;;22.86;60.11;100113.44;4970149;29;20060;-96
2023/09/01 13:17:09;;;;;;;6.63;3.30;;;;;;;23.08;59.40;100110.00;4986321;28;20075;-96
2023/09/01 13:19:35;;;;;;;6.30;2.25;;;;;;;23.00;62.50;100104.81;4986049;28;20019;-96
2023/09/01 13:22:02;;;;;;;5.18;2.75;;;;;;;22.89;58.82;100097.28;4986814;28;20059;-96
2023/09/01 13:24:28;;;;;;;5.30;2.63;;;;;;;23.01;57.39;100103.81;4969778;29;20058;-96
2023/09/01 13:26:55;;;;;;;4.32;2.70;;;;;;;23.33;59.96;100098.44;4984843;28;20093;-96
2023/09/01 13:29:20;;;;;;;9.98;2.70;;;;;;;23.02;59.24;100102.81;4982444;28;20031;-96
2023/09/01 13:31:46;;;;;;;3.85;2.60;;;;;;;23.21;59.41;100112.03;4967479;29;20034;-96
2023/09/01 13:34:12;;;;;;;3.10;2.53;;;;;;;23.01;57.51;100108.25;4968214;29;20038;-96
2023/09/01 13:36:37;;;;;;;6.65;2.80;;;;;;;23.18;55.56;100112.38;4984823;28;20028;-96
2023/09/01 13:39:03;;;;;;;4.35;2.78;;;;;;;23.02;55.73;100117.78;4968457;29;20027;-96
2023/09/01 13:41:29;;;;;;;3.75;2.53;;;;;;;22.90;56.00;100104.22;4968256;29;20038;-96
2023/09/01 13:43:55;;;;;;;4.05;2.20;;;;;;;23.11;55.02;100115.91;4967612;28;20031;-96
2023/09/01 13:46:26;;;;;;;2.72;1.90;;;;;;;23.08;57.45;100112.63;4968526;29;20131;-96
2023/09/01 13:48:57;;;;;;;5.38;2.15;;;;;;;23.16;55.91;100110.94;4983512;28;20020;-96
2023/09/01 13:51:24;;;;;;;3.67;2.55;;;;;;;23.32;58.54;100118.69;4982958;28;20055;-96
2023/09/01 13:53:54;;;;;;;4.95;2.45;;;;;;;23.23;58.50;100115.28;4983542;28;20031;-96
2023/09/01 13:56:21;;;;;;;7.63;2.53;;;;;;;23.35;59.17;100107.78;4984424;28;20493;-96
2023/09/01 13:58:46;;;;;;;4.13;2.72;;;;;;;23.46;59.01;100111.81;4968925;29;20082;-96
2023/09/01 14:01:12;;;;;;;4.30;2.30;;;;;;;23.38;57.83;100120.59;4967421;29;20401;-96
2023/09/01 14:03:42;;;;;;;4.97;2.58;;;;;;;23.35;57.76;100118.31;4967725;28;20027;-96
2023/09/01 14:06:08;;;;;;;5.95;2.83;;;;;;;23.36;57.59;100119.97;4967781;29;20027;-96
2023/09/01 14:08:34;;;;;;;7.32;3.13;;;;;;;23.34;59.38;100118.53;4983483;28;20027;-96
2023/09/01 14:11:01;;;;;;;3.13;2.08;;;;;;;23.46;59.97;100117.91;4968426;29;20368;-96
2023/09/01 14:13:27;;;;;;;5.28;2.90;;;;;;;23.40;59.14;100121.22;4984520;28;20038;-96
2023/09/01 14:15:56;;;;;;;4.88;3.40;;;;;;;23.36;56.65;100119.13;4984520;28;20051;-96
2023/09/01 14:18:23;;;;;;;5.72;2.70;;;;;;;23.00;56.46;100112.72;4965742;29;20041;-96
2023/09/01 14:20:52;;;;;;;4.38;2.63;;;;;;;22.94;57.91;100110.75;4981904;28;20027;-96
2023/09/01 14:23:23;;;;;;;5.75;2.42;;;;;;;23.10;55.15;100111.66;4967470;29;20034;-96
2023/09/01 14:25:49;;;;;;;3.80;2.27;;;;;;;23.11;55.33;100115.91;4968351;29;20051;-96
2023/09/01 14:28:15;;;;;;;4.65;2.65;;;;;;;23.13;54.62;100117.38;4985368;28;20269;-96
2023/09/01 14:30:41;;;;;;;4.60;2.72;;;;;;;23.08;56.17;100111.81;4984646;28;20037;-96
2023/09/01 14:33:07;;;;;;;4.53;2.58;;;;;;;23.06;55.21;100121.69;4985002;28;20062;-96
2023/09/01 14:35:34;;;;;;;3.08;2.25;;;;;;;23.06;54.68;100119.88;4969636;28;20030;-96
2023/09/01 14:37:59;;;;;;;3.22;1.90;;;;;;;23.15;55.12;100119.84;4985275;28;20023;-96
2023/09/01 14:40:25;;;;;;;4.78;2.15;;;;;;;22.83;55.49;100114.63;4984961;28;20023;-96
2023/09/01 14:42:52;;;;;;;4.85;2.55;;;;;;;22.46;57.66;100127.66;4970465;28;20031;-96
2023/09/01 14:45:17;;;;;;;3.08;2.30;;;;;;;22.73;55.76;100118.50;4967347;29;20039;-96
2023/09/01 14:47:43;;;;;;;4.75;2.78;;;;;;;22.56;56.07;100117.78;4986989;28;20140;-96
2023/09/01 14:50:12;;;;;;;2.47;1.92;;;;;;;22.88;55.36;100122.00;4970418;29;20027;-96
2023/09/01 14:52:37;;;;;;;2.20;1.90;;;;;;;22.96;54.82;100119.28;4970136;29;20034;-96
2023/09/01 14:55:03;;;;;;;4.30;2.08;;;;;;;23.11;57.98;100116.72;4966727;28;20058;-96
2023/09/01 14:57:29;;;;;;;2.85;2.25;;;;;;;23.14;57.85;100116.38;4966001;29;20030;-96
2023/09/01 14:59:54;;;;;;;2.92;2.03;;;;;;;23.19;57.83;100113.19;4983730;28;20019;-96
2023/09/01 15:02:20;;;;;;;2.95;1.48;;;;;;;23.22;59.21;100123.41;4967877;29;20035;-96
2023/09/01 15:04:46;;;;;;;4.75;2.10;;;;;;;23.18;59.28;100128.19;4967284;29;20019;-96
2023/09/01 15:07:13;;;;;;;4.60;2.00;;;;;;;22.75;57.18;100132.25;4982857;28;20035;-96
2023/09/01 15:09:39;;;;;;;2.53;1.58;;;;;;;22.98;56.44;100122.59;4982884;28;20106;-96
2023/09/01 15:12:04;;;;;;;1.52;1.05;;;;;;;22.91;54.95;100121.63;4982406;28;20069;-96
2023/09/01 15:14:30;;;;;;;1.88;1.30;;;;;;;22.90;55.66;100127.91;4965795;29;20027;-96
2023/09/01 15:16:56;;;;;;;3.22;0.85;;;;;;;22.79;57.53;100134.38;4981965;28;20066;-96
2023/09/01 15:19:21;;;;;;;3.33;1.30;;;;;;;22.67;57.23;100132.31;4964731;29;20091;-96
2023/09/01 15:21:47;;;;;;;3.13;2.10;;;;;;;22.68;57.73;100137.44;4982526;28;20086;-96
2023/09/01 15:24:13;;;;;;;2.10;1.33;;;;;;;22.65;59.12;100135.13;4966319;29;20038;-96
2023/09/01 15:26:38;;;;;;;2.92;1.63;;;;;;;22.59;58.07;100144.53;4983771;28;20038;-96
2023/09/01 15:29:04;;;;;;;2.58;1.15;;;;;;;22.49;58.39;100141.31;4967052;29;20031;-96
2023/09/01 15:31:30;;;;;;;2.80;1.30;;;;;;;22.57;57.34;100146.50;4966993;29;20065;-96
2023/09/01 15:33:56;;;;;;;2.78;1.05;;;;;;;22.66;59.15;100144.66;4982618;28;20057;-96
2023/09/01 15:36:22;;;;;;;3.30;1.27;;;;;;;22.68;58.21;100145.31;4982720;28;20034;-96
2023/09/01 15:38:51;;;;;;;2.47;1.42;;;;;;;22.60;62.93;100145.34;4982391;28;20488;-96
2023/09/01 15:41:17;;;;;;;2.63;1.88;;;;;;;22.45;62.48;100147.91;4966538;29;20023;-96
2023/09/01 15:43:43;;;;;;;2.92;1.67;;;;;;;22.60;59.98;100140.91;4966798;29;20050;-96
2023/09/01 15:46:09;;;;;;;3.38;1.90;;;;;;;22.50;62.49;100145.56;4965277;29;20023;-96
2023/09/01 15:48:35;;;;;;;3.40;2.10;;;;;;;22.70;59.59;100150.38;4983171;28;20031;-96
2023/09/01 15:51:02;;;;;;;4.53;2.25;;;;;;;22.59;62.43;100144.53;4980984;28;20034;-96
2023/09/01 15:53:29;;;;;;;3.08;1.95;;;;;;;22.50;60.66;100145.56;4964464;28;20035;-96
2023/09/01 15:55:56;;;;;;;2.97;2.17;;;;;;;22.50;64.11;100139.50;4965905;28;20027;-96
2023/09/01 15:58:22;;;;;;;2.88;1.90;;;;;;;22.55;60.37;100142.41;4980785;28;20046;-96
2023/09/01 16:00:53;;;;;;;2.83;1.75;;;;;;;22.34;60.21;100135.97;4965189;29;20074;-96
2023/09/01 16:03:19;;;;;;;3.57;1.70;;;;;;;22.49;60.74;100143.94;4981280;28;20031;-96
2023/09/01 16:05:44;;;;;;;3.15;1.90;;;;;;;22.44;61.47;100146.28;4982182;28;20373;-96
2023/09/01 16:08:10;;;;;;;4.40;2.50;;;;;;;22.61;59.82;100147.81;4965453;29;20027;-95
2023/09/01 16:10:36;;;;;;;4.70;1.83;;;;;;;22.36;64.17;100138.41;4981301;28;20501;-96
2023/09/01 16:13:02;;;;;;;6.20;2.17;;;;;;;22.53;63.66;100144.41;4980658;28;20381;-96
2023/09/01 16:15:28;;;;;;;2.53;1.83;;;;;;;22.34;65.89;100153.56;4979359;28;20027;-96
2023/09/01 16:17:54;;;;;;;4.32;1.85;;;;;;;22.43;64.03;100155.97;4959850;28;20114;-96
2023/09/01 16:20:21;;;;;;;2.75;1.88;;;;;;;22.32;64.11;100158.97;4955737;29;20039;-96
2023/09/01 16:22:47;;;;;;;4.78;1.92;;;;;;;22.19;63.90;100159.50;4961175;29;20055;-96
2023/09/01 16:25:13;;;;;;;3.20;1.70;;;;;;;22.16;66.58;100159.81;4962401;29;20034;-96
2023/09/01 16:27:43;;;;;;;2.45;1.80;;;;;;;22.10;65.83;100173.66;4970473;28;20019;-96
2023/09/01 16:30:11;;;;;;;2.85;1.80;;;;;;;22.14;67.02;100174.97;4976669;28;20504;-95
2023/09/01 16:37:47;;;;;;;4.43;2.03;;;;;;;22.06;65.90;100177.59;5038064;23;20134;-96
2023/09/01 16:40:14;;;;;;;5.35;1.70;;;;;;;22.02;63.93;100181.59;4990560;28;20082;-96
2023/09/01 16:42:44;;;;;;;2.97;2.00;;;;;;;21.99;65.08;100181.91;5146776;23;20021;-96
2023/09/01 16:45:10;;;;;;;2.42;1.58;;;;;;;21.99;66.93;100185.34;5005824;23;20138;-96
2023/09/01 16:47:36;;;;;;;2.88;2.00;;;;;;;22.14;65.36;100193.38;4980398;28;20055;-96
2023/09/01 16:50:04;;;;;;;2.60;1.80;;;;;;;22.02;66.03;100195.53;4958337;28;20008;-96
2023/09/01 16:52:29;;;;;;;2.65;1.73;;;;;;;22.07;65.55;100189.78;4964559;29;20034;-96
2023/09/01 16:54:55;;;;;;;3.97;1.60;;;;;;;21.93;65.57;100195.72;4967242;28;20023;-96
2023/09/01 16:57:22;;;;;;;2.83;1.45;;;;;;;22.03;63.70;100198.97;4979213;28;20034;-96
2023/09/01 16:59:47;;;;;;;3.58;2.00;;;;;;;22.01;66.13;100195.69;4976827;28;20018;-96
2023/09/01 17:02:13;;;;;;;13.43;2.60;;;;;;;21.91;67.84;100197.69;4978628;28;20023;-96
2023/09/01 17:12:24;;;;;;;2.80;1.58;;;;;;;21.77;68.19;100199.19;5089442;23;20048;-96
2023/09/01 17:20:25;;;;;;;3.03;1.45;;;;;;;21.59;73.07;100215.16;5556984;23;20035;-96
2023/09/01 17:23:04;;;;;;;2.15;1.58;;;;;;;21.46;73.12;100205.16;5675872;23;20010;-96
2023/09/01 17:30:40;;;;;;;4.72;1.65;;;;;;;21.18;76.16;100228.22;5047308;23;20097;-96
2023/09/01 17:33:05;;;;;;;1.92;1.55;;;;;;;21.08;79.62;100231.00;4969945;28;20114;-96
2023/09/01 17:35:31;;;;;;;3.10;1.60;;;;;;;20.94;78.12;100227.19;4961977;28;20034;-95
2023/09/01 17:37:57;;;;;;;1.98;1.45;;;;;;;20.88;79.35;100227.84;4962464;29;20027;-96
2023/09/01 17:40:22;;;;;;;3.42;1.42;;;;;;;20.91;81.25;100219.63;4952844;29;20024;-94
2023/09/01 17:42:47;;;;;;;3.05;1.42;;;;;;;20.83;81.24;100218.81;4941634;28;20453;-93
2023/09/01 17:45:13;;;;;;;2.65;1.70;;;;;;;20.74;80.67;100220.59;4947742;29;20019;-93
2023/09/01 17:47:38;;;;;;;3.03;1.55;;;;;;;20.72;81.26;100222.53;4944278;29;20034;-92
2023/09/01 17:50:04;;;;;;;5.35;1.65;;;;;;;20.70;82.79;100224.50;4954557;28;20123;-94
2023/09/01 17:52:29;;;;;;;7.13;1.70;;;;;;;20.65;83.89;100226.78;4955142;28;20042;-96
2023/09/01 17:54:55;;;;;;;3.15;1.50;;;;;;;20.45;84.51;100219.13;4956053;28;20122;-94
2023/09/01 17:57:22;;;;;;;1.88;1.58;;;;;;;20.34;83.17;100214.19;4955630;28;20027;-96
2023/09/01 17:59:48;;;;;;;3.97;1.38;;;;;;;20.38;83.54;100220.72;4946426;28;20035;-96
2023/09/01 18:02:14;;;;;;;1.88;1.48;;;;;;;20.36;84.45;100221.88;4937531;29;20036;-96
2023/09/01 18:04:40;;;;;;;4.20;2.08;;;;;;;20.23;84.24;100227.53;4960839;28;20115;-95
2023/09/01 18:07:06;;;;;;;2.47;1.70;;;;;;;20.05;85.47;100220.56;4931521;29;20040;-95
2023/09/01 18:12:23;;;;;;;4.72;1.90;;;;;;;19.97;84.89;100230.16;5551464;23;20513;-96
2023/09/01 18:14:48;;;;;;;2.28;1.63;;;;;;;19.94;84.86;100238.34;5151627;23;20061;-95
2023/09/01 18:19:52;;;;;;;4.20;1.85;;;;;;;19.61;88.30;100244.13;5000345;23;20532;-96
2023/09/01 18:24:53;;;;;;;2.40;1.92;;;;;;;19.50;91.34;100243.56;5080290;23;20051;-95
2023/09/01 18:27:28;;;;;;;3.30;2.00;;;;;;;19.42;91.69;100244.31;4956986;28;20035;-96
2023/09/01 18:29:55;;;;;;;3.72;2.85;;;;;;;19.44;88.97;100252.84;4988296;28;20023;-95
2023/09/01 18:32:28;;;;;;;4.82;2.72;;;;;;;19.24;89.51;100252.97;4943187;28;20498;-94
2023/09/01 18:34:53;;;;;;;5.40;2.60;;;;;;;19.16;92.22;100259.91;4936393;29;20028;-95
2023/09/01 18:37:19;;;;;;;5.13;2.05;;;;;;;18.97;93.01;100266.09;4940038;29;20024;-96
2023/09/01 18:39:44;;;;;;;4.88;2.38;;;;;;;18.88;92.78;100257.34;4939222;29;20028;-96
2023/09/01 18:42:29;;;;;;;4.20;2.70;;;;;;;18.86;94.71;100266.31;4939689;28;20094;-96
2023/09/01 18:44:54;;;;;;;3.22;2.58;;;;;;;18.71;95.10;100274.59;4968882;28;20466;-96
2023/09/01 18:47:19;;;;;;;5.03;2.55;;;;;;;18.71;96.61;100271.16;4937471;29;20063;-96
2023/09/01 18:49:53;;;;;;;3.83;2.90;;;;;;;18.63;97.83;100273.66;4938124;29;20023;-96
2023/09/01 18:52:18;;;;;;;5.43;3.13;;;;;;;18.59;99.05;100281.78;4970198;28;20042;-96
2023/09/01 18:54:44;;;;;;;3.97;3.10;;;;;;;18.55;99.42;100285.66;4941881;29;20028;-96
2023/09/01 18:57:18;;;;;;;3.63;2.80;;;;;;;18.34;100.00;100290.28;4982317;23;20035;-96
2023/09/01 19:05:01;;;;;;;6.10;3.23;;;;;;;18.26;100.00;100311.88;4944583;28;20044;-96
2023/09/01 19:07:27;;;;;;;4.80;2.95;;;;;;;18.25;100.00;100312.84;4935786;29;20035;-96
2023/09/01 19:10:00;;;;;;;4.60;2.88;;;;;;;18.13;100.00;100311.34;4998469;23;20071;-96
2023/09/01 19:12:32;;;;;;;3.50;2.13;;;;;;;18.06;100.00;100310.28;5251214;23;20047;-96
2023/09/01 19:15:08;;;;;;;8.52;2.75;;;;;;;17.84;100.00;100319.22;4940488;29;20031;-96
2023/09/01 19:20:30;;;;;;;3.63;2.38;;;;;;;17.69;100.00;100337.06;4985040;23;20070;-96
2023/09/01 19:23:04;;;;;;;3.97;2.40;;;;;;;17.64;100.00;100339.25;4960094;29;20035;-96
2023/09/01 19:25:30;;;;;;;3.47;2.10;;;;;;;17.48;100.00;100340.63;4955219;28;20501;-96
2023/09/01 19:30:32;;;;;;;2.63;1.57;;;;;;;17.22;100.00;100345.50;4938529;29;20039;-96
2023/09/01 19:32:59;;;;;;;3.05;1.58;;;;;;;17.22;100.00;100350.72;5041605;23;20394;-96
2023/09/01 19:35:25;;;;;;;3.05;1.90;;;;;;;17.24;100.00;100350.56;4952408;28;20035;-96
2023/09/01 19:37:52;;;;;;;3.72;1.95;;;;;;;17.06;100.00;100348.59;4953853;29;20030;-96
2023/09/01 19:40:18;;;;;;;3.97;1.90;;;;;;;17.16;100.00;100360.84;4954247;28;20071;-96
2023/09/01 19:42:43;;;;;;;4.63;2.13;;;;;;;17.11;100.00;100364.66;4953154;28;20023;-95
2023/09/01 19:45:26;;;;;;;2.72;1.70;;;;;;;17.04;100.00;100363.53;4952715;29;20493;-95
2023/09/01 19:47:52;;;;;;;3.83;1.75;;;;;;;17.09;100.00;100361.38;4953863;28;20040;-96
2023/09/01 19:50:17;;;;;;;4.55;2.20;;;;;;;16.96;100.00;100359.94;4952637;28;20027;-96
2023/09/01 19:52:42;;;;;;;3.00;2.42;;;;;;;16.97;100.00;100370.25;4956525;29;20031;-95
2023/09/01 19:55:17;;;;;;;3.90;2.95;;;;;;;17.03;100.00;100374.13;4959416;29;20028;-96
2023/09/01 20:02:45;;;;;;;3.58;2.25;;;;;;;16.69;100.00;100375.16;4955042;28;20051;-96
2023/09/01 20:05:15;;;;;;;5.30;1.98;;;;;;;16.85;100.00;100382.56;4953296;28;20031;-96
2023/09/01 20:07:40;;;;;;;5.40;1.90;;;;;;;16.93;100.00;100389.72;4959921;28;20078;-96
2023/09/01 20:10:34;;;;;;;2.15;1.52;;;;;;;16.94;100.00;100385.31;4960534;29;20031;-96
2023/09/01 20:13:02;;;;;;;2.88;1.63;;;;;;;16.90;100.00;100384.78;4956070;28;20039;-96
2023/09/01 20:15:31;;;;;;;5.20;2.50;;;;;;;16.81;100.00;100388.16;4958878;28;20473;-96
2023/09/01 20:17:58;;;;;;;3.38;1.70;;;;;;;16.69;100.00;100395.19;4952372;28;20458;-96
2023/09/01 20:20:25;;;;;;;3.88;1.98;;;;;;;16.61;100.00;100393.22;4954590;28;20134;-96
2023/09/01 20:22:51;;;;;;;3.13;1.70;;;;;;;16.59;100.00;100389.09;4956245;28;20034;-96
2023/09/01 20:25:16;;;;;;;4.88;1.95;;;;;;;16.64;100.00;100405.19;4968488;28;20019;-95
2023/09/01 20:27:42;;;;;;;3.67;1.20;;;;;;;16.50;100.00;100406.31;4955409;28;20038;-96
2023/09/01 20:30:07;;;;;;;2.22;1.42;;;;;;;16.46;100.00;100407.53;4953255;29;20035;-96
2023/09/01 20:32:33;;;;;;;3.25;1.70;;;;;;;16.48;100.00;100418.63;5018791;23;20054;-96
2023/09/01 20:35:00;;;;;;;2.97;1.20;;;;;;;16.23;100.00;100415.44;4937719;29;20035;-96
2023/09/01 20:37:26;;;;;;;3.45;1.42;;;;;;;16.23;100.00;100410.22;4950402;29;20040;-96